createdAt,value
2022-10-03T00:02:36.566Z,11.70
2022-10-03T00:05:31.133Z,11.60
2022-10-03T00:08:26.071Z,11.70
2022-10-03T00:11:18.797Z,11.60
2022-10-03T00:14:13.663Z,11.60
2022-10-03T00:17:04.288Z,11.60
2022-10-03T00:19:56.562Z,11.60
2022-10-03T00:22:48.101Z,11.60
2022-10-03T00:25:41.776Z,11.60
2022-10-03T00:28:44.568Z,11.70
2022-10-03T00:31:43.442Z,11.70
2022-10-03T00:34:39.951Z,11.70
2022-10-03T00:37:31.085Z,11.60
2022-10-03T00:40:30.675Z,11.70
2022-10-03T00:43:36.323Z,11.80
2022-10-03T00:46:43.224Z,11.70
2022-10-03T00:49:55.198Z,11.70
2022-10-03T00:52:48.596Z,11.70
2022-10-03T00:55:43.394Z,11.70
2022-10-03T00:58:39.808Z,11.70
2022-10-03T01:01:35.468Z,11.70
2022-10-03T01:04:28.110Z,11.80
2022-10-03T01:07:24.886Z,11.70
2022-10-03T01:10:17.014Z,11.70
2022-10-03T01:13:22.025Z,11.70
2022-10-03T01:16:15.182Z,11.70
2022-10-03T01:19:06.824Z,11.70
2022-10-03T01:22:13.691Z,11.70
2022-10-03T01:25:11.423Z,11.80
2022-10-03T01:28:19.647Z,11.80
2022-10-03T01:31:11.376Z,11.80
2022-10-03T01:34:02.236Z,11.80
2022-10-03T01:36:55.405Z,11.70
2022-10-03T01:39:45.692Z,11.70
2022-10-03T01:42:38.480Z,11.70
2022-10-03T01:45:29.728Z,11.70
2022-10-03T01:48:23.080Z,11.80
2022-10-03T01:51:12.659Z,11.70
2022-10-03T01:54:07.200Z,11.70
2022-10-03T01:56:58.821Z,11.70
2022-10-03T01:59:49.413Z,11.70
2022-10-03T02:02:41.166Z,11.80
2022-10-03T02:05:39.895Z,11.80
2022-10-03T02:08:32.147Z,11.70
2022-10-03T02:11:28.039Z,11.70
2022-10-03T02:14:21.196Z,11.70
2022-10-03T02:17:13.036Z,11.80
2022-10-03T02:20:08.058Z,11.70
2022-10-03T02:22:58.198Z,11.70
2022-10-03T02:25:54.753Z,11.70
2022-10-03T02:28:57.356Z,11.70
2022-10-03T02:32:03.881Z,11.70
2022-10-03T02:35:08.045Z,11.70
2022-10-03T02:38:10.126Z,11.70
2022-10-03T02:41:10.094Z,11.70
2022-10-03T02:44:12.050Z,11.70
2022-10-03T02:47:16.318Z,11.70
2022-10-03T02:50:18.993Z,11.70
2022-10-03T02:53:34.150Z,11.70
2022-10-03T02:56:40.751Z,11.70
2022-10-03T02:59:40.198Z,11.70
2022-10-03T03:02:42.791Z,11.70
2022-10-03T03:05:49.316Z,11.70
2022-10-03T03:08:46.062Z,11.70
2022-10-03T03:11:47.124Z,11.70
2022-10-03T03:14:51.894Z,11.70
2022-10-03T03:17:45.082Z,11.70
2022-10-03T03:20:52.284Z,11.80
2022-10-03T03:23:55.071Z,11.80
2022-10-03T03:26:50.706Z,11.70
2022-10-03T03:29:42.792Z,11.70
2022-10-03T03:32:37.625Z,11.70
2022-10-03T03:35:29.873Z,11.70
2022-10-03T03:38:25.532Z,11.60
2022-10-03T03:41:20.861Z,11.70
2022-10-03T03:44:29.692Z,11.70
2022-10-03T03:47:28.679Z,11.70
2022-10-03T03:50:23.215Z,11.70
2022-10-03T03:53:22.775Z,11.70
2022-10-03T03:56:33.382Z,11.70
2022-10-03T03:59:27.638Z,11.70
2022-10-03T04:02:22.595Z,11.70
2022-10-03T04:05:15.487Z,11.70
2022-10-03T04:08:19.430Z,11.70
2022-10-03T04:11:16.720Z,11.70
2022-10-03T04:14:18.925Z,11.70
2022-10-03T04:17:36.510Z,11.70
2022-10-03T04:20:32.126Z,11.60
2022-10-03T04:23:28.439Z,11.60
2022-10-03T04:26:25.593Z,11.60
2022-10-03T04:29:31.218Z,11.50
2022-10-03T04:32:29.789Z,11.50
2022-10-03T04:35:34.003Z,11.50
2022-10-03T04:38:24.528Z,11.50
2022-10-03T04:41:28.501Z,11.50
2022-10-03T04:44:27.120Z,11.50
2022-10-03T04:47:17.728Z,11.50
2022-10-03T04:50:11.045Z,11.50
2022-10-03T04:53:05.683Z,11.50
2022-10-03T04:55:55.310Z,11.50
2022-10-03T04:58:51.223Z,11.50
2022-10-03T05:01:44.064Z,11.50
2022-10-03T05:04:34.230Z,11.50
2022-10-03T05:07:26.376Z,11.50
2022-10-03T05:10:24.097Z,11.50
2022-10-03T05:13:16.417Z,11.50
2022-10-03T05:16:09.411Z,11.40
2022-10-03T05:19:02.835Z,11.40
2022-10-03T05:21:52.186Z,11.50
2022-10-03T05:24:45.032Z,11.50
2022-10-03T05:27:38.040Z,11.50
2022-10-03T05:30:34.115Z,11.50
2022-10-03T05:33:31.560Z,11.50
2022-10-03T05:36:30.681Z,11.50
2022-10-03T05:39:26.231Z,11.50
2022-10-03T05:42:23.504Z,11.50
2022-10-03T05:45:23.472Z,11.50
2022-10-03T05:48:14.259Z,11.50
2022-10-03T05:51:23.093Z,11.50
2022-10-03T05:54:28.809Z,11.50
2022-10-03T05:57:32.167Z,11.50
2022-10-03T06:00:21.806Z,11.50
2022-10-03T06:03:25.871Z,11.50
2022-10-03T06:06:20.802Z,11.50
2022-10-03T06:09:26.004Z,11.50
2022-10-03T06:12:15.688Z,11.50
2022-10-03T06:15:26.649Z,11.60
2022-10-03T06:18:31.448Z,11.60
2022-10-03T06:21:39.144Z,11.60
2022-10-03T06:24:49.618Z,11.60
2022-10-03T06:27:52.350Z,11.60
2022-10-03T06:30:51.725Z,11.70
2022-10-03T06:33:58.635Z,11.70
2022-10-03T06:36:55.225Z,11.70
2022-10-03T06:39:57.802Z,11.70
2022-10-03T06:42:56.179Z,11.70
2022-10-03T06:45:58.030Z,11.80
2022-10-03T06:49:12.934Z,11.80
2022-10-03T06:52:09.552Z,11.90
2022-10-03T06:55:14.672Z,11.90
2022-10-03T06:58:20.300Z,11.90
2022-10-03T07:01:26.058Z,11.90
2022-10-03T07:04:24.243Z,11.90
2022-10-03T07:07:29.917Z,11.90
2022-10-03T07:10:22.666Z,12.00
2022-10-03T07:13:22.820Z,12.00
2022-10-03T07:16:32.616Z,12.10
2022-10-03T07:19:27.111Z,12.10
2022-10-03T07:22:35.938Z,12.20
2022-10-03T07:25:32.827Z,12.30
2022-10-03T07:28:43.192Z,12.30
2022-10-03T07:31:38.654Z,12.40
2022-10-03T07:34:41.694Z,12.40
2022-10-03T07:37:55.268Z,12.50
2022-10-03T07:41:04.139Z,12.50
2022-10-03T07:44:09.889Z,12.60
2022-10-03T07:47:29.151Z,12.70
2022-10-03T07:50:27.423Z,12.80
2022-10-03T07:53:23.130Z,12.90
2022-10-03T07:56:17.609Z,12.90
2022-10-03T07:59:12.579Z,12.90
2022-10-03T08:02:09.843Z,13.00
2022-10-03T08:05:06.952Z,13.00
2022-10-03T08:08:04.415Z,13.00
2022-10-03T08:11:08.714Z,13.00
2022-10-03T08:14:01.780Z,13.00
2022-10-03T08:17:02.598Z,13.00
2022-10-03T08:20:03.147Z,13.00
2022-10-03T08:23:00.262Z,13.00
2022-10-03T08:25:53.876Z,12.90
2022-10-03T08:28:49.060Z,13.00
2022-10-03T08:31:54.572Z,13.00
2022-10-03T08:34:59.244Z,13.00
2022-10-03T08:38:03.533Z,13.00
2022-10-03T08:41:15.531Z,13.00
2022-10-03T08:44:21.026Z,13.00
2022-10-03T08:47:27.622Z,13.10
2022-10-03T08:50:36.511Z,13.10
2022-10-03T08:53:47.729Z,13.30
2022-10-03T08:56:45.144Z,13.30
2022-10-03T08:59:55.189Z,13.50
2022-10-03T09:03:20.111Z,13.70
2022-10-03T09:06:28.628Z,13.90
2022-10-03T09:09:39.019Z,14.00
2022-10-03T09:12:35.295Z,14.00
2022-10-03T09:15:50.341Z,14.10
2022-10-03T09:18:46.382Z,14.10
2022-10-03T09:21:52.200Z,14.10
2022-10-03T09:24:57.482Z,14.10
2022-10-03T09:27:58.816Z,14.10
2022-10-03T09:30:51.248Z,14.20
2022-10-03T09:33:55.335Z,14.20
2022-10-03T09:37:01.751Z,14.20
2022-10-03T09:40:08.353Z,14.20
2022-10-03T09:43:12.742Z,14.20
2022-10-03T09:46:20.716Z,14.20
2022-10-03T09:49:26.899Z,14.20
2022-10-03T09:52:26.430Z,14.30
2022-10-03T09:55:34.195Z,14.40
2022-10-03T09:58:40.461Z,14.40
2022-10-03T10:01:31.440Z,14.40
2022-10-03T10:05:00.619Z,14.50
2022-10-03T10:08:11.181Z,14.30
2022-10-03T10:11:09.415Z,14.20
2022-10-03T10:14:11.015Z,14.40
2022-10-03T10:17:26.191Z,14.60
2022-10-03T10:20:28.471Z,14.60
2022-10-03T10:23:24.783Z,14.50
2022-10-03T10:26:31.291Z,14.50
2022-10-03T10:29:30.429Z,14.50
2022-10-03T10:32:39.224Z,14.50
2022-10-03T10:35:51.753Z,14.30
2022-10-03T10:39:02.863Z,14.30
2022-10-03T10:42:04.925Z,14.50
2022-10-03T10:45:10.658Z,14.80
2022-10-03T10:48:13.270Z,15.00
2022-10-03T10:51:29.776Z,15.10
2022-10-03T10:54:44.652Z,15.30
2022-10-03T10:57:55.593Z,15.40
2022-10-03T11:00:56.237Z,15.30
2022-10-03T11:03:58.282Z,15.30
2022-10-03T11:07:06.947Z,15.10
2022-10-03T11:10:09.169Z,15.10
2022-10-03T11:13:27.101Z,15.20
2022-10-03T11:16:31.168Z,15.30
2022-10-03T11:19:32.924Z,15.30
2022-10-03T11:22:48.704Z,15.20
2022-10-03T11:26:06.678Z,15.10
2022-10-03T11:29:21.485Z,15.20
2022-10-03T11:32:36.946Z,15.20
2022-10-03T11:35:43.165Z,15.20
2022-10-03T11:38:32.840Z,15.40
2022-10-03T11:41:26.606Z,15.50
2022-10-03T11:44:18.403Z,15.60
2022-10-03T11:47:30.807Z,15.80
2022-10-03T11:50:35.035Z,15.90
2022-10-03T11:53:46.951Z,15.90
2022-10-03T11:56:37.100Z,15.80
2022-10-03T11:59:34.274Z,15.80
2022-10-03T12:02:34.580Z,15.60
2022-10-03T12:05:25.763Z,15.50
2022-10-03T12:08:38.406Z,15.60
2022-10-03T12:11:28.213Z,15.70
2022-10-03T12:14:23.935Z,15.90
2022-10-03T12:17:15.780Z,16.00
2022-10-03T12:20:06.022Z,15.90
2022-10-03T12:22:59.391Z,15.80
2022-10-03T12:25:50.118Z,15.90
2022-10-03T12:28:39.771Z,15.90
2022-10-03T12:31:30.210Z,15.90
2022-10-03T12:34:24.595Z,15.90
2022-10-03T12:37:24.465Z,16.10
2022-10-03T12:40:18.931Z,16.30
2022-10-03T12:43:15.880Z,16.30
2022-10-03T12:46:05.447Z,16.20
2022-10-03T12:48:57.839Z,16.20
2022-10-03T12:51:52.275Z,16.30
2022-10-03T12:54:48.014Z,16.30
2022-10-03T12:57:47.663Z,16.30
2022-10-03T13:00:46.006Z,16.40
2022-10-03T13:03:39.611Z,16.50
2022-10-03T13:07:02.335Z,16.60
2022-10-03T13:09:59.635Z,16.70
2022-10-03T13:12:51.090Z,16.70
2022-10-03T13:15:44.356Z,16.60
2022-10-03T13:18:43.132Z,16.70
2022-10-03T13:21:45.829Z,16.70
2022-10-03T13:24:38.002Z,16.90
2022-10-03T13:27:32.240Z,17.10
2022-10-03T13:30:21.998Z,17.40
2022-10-03T13:33:16.620Z,17.50
2022-10-03T13:36:09.856Z,17.60
2022-10-03T13:39:07.967Z,17.70
2022-10-03T13:42:00.625Z,17.70
2022-10-03T13:44:52.912Z,17.60
2022-10-03T13:47:45.338Z,17.40
2022-10-03T13:50:36.665Z,17.30
2022-10-03T13:53:40.694Z,17.20
2022-10-03T13:56:37.305Z,17.10
2022-10-03T13:59:41.906Z,17.00
2022-10-03T14:02:48.400Z,17.00
2022-10-03T14:05:49.692Z,17.00
2022-10-03T14:08:50.490Z,16.90
2022-10-03T14:11:43.674Z,17.00
2022-10-03T14:14:39.694Z,16.90
2022-10-03T14:17:32.200Z,16.80
2022-10-03T14:20:23.282Z,16.80
2022-10-03T14:23:25.976Z,16.80
2022-10-03T14:26:16.576Z,16.70
2022-10-03T14:29:07.262Z,16.50
2022-10-03T14:31:58.861Z,16.50
2022-10-03T14:34:53.263Z,16.50
2022-10-03T14:37:43.540Z,16.50
2022-10-03T14:40:36.906Z,16.50
2022-10-03T14:43:30.000Z,16.40
2022-10-03T14:46:20.596Z,16.30
2022-10-03T14:49:20.406Z,16.20
2022-10-03T14:52:26.073Z,16.10
2022-10-03T14:55:15.164Z,16.10
2022-10-03T14:58:11.513Z,16.10
2022-10-03T15:01:04.311Z,16.00
2022-10-03T15:03:58.172Z,16.00
2022-10-03T15:06:54.966Z,16.00
2022-10-03T15:09:43.806Z,15.90
2022-10-03T15:12:33.731Z,15.90
2022-10-03T15:15:25.499Z,15.90
2022-10-03T15:18:15.544Z,15.90
2022-10-03T15:21:03.941Z,15.90
2022-10-03T15:23:55.516Z,15.80
2022-10-03T15:26:43.740Z,15.80
2022-10-03T15:29:32.139Z,15.80
2022-10-03T15:32:22.617Z,15.70
2022-10-03T15:35:17.008Z,15.70
2022-10-03T15:38:10.087Z,15.60
2022-10-03T15:41:08.492Z,15.70
2022-10-03T15:44:00.729Z,15.70
2022-10-03T15:46:53.063Z,15.70
2022-10-03T15:49:46.552Z,15.70
2022-10-03T15:52:36.722Z,15.70
2022-10-03T15:55:26.876Z,15.70
2022-10-03T15:58:17.826Z,15.60
2022-10-03T16:01:08.478Z,15.50
2022-10-03T16:03:58.377Z,15.50
2022-10-03T16:06:49.817Z,15.50
2022-10-03T16:09:46.282Z,15.40
2022-10-03T16:12:46.359Z,15.30
2022-10-03T16:15:39.798Z,15.30
2022-10-03T16:18:54.768Z,15.30
2022-10-03T16:21:46.448Z,15.20
2022-10-03T16:24:37.271Z,15.20
2022-10-03T16:27:25.760Z,15.10
2022-10-03T16:30:19.210Z,15.00
2022-10-03T16:33:12.032Z,14.90
2022-10-03T16:36:01.884Z,14.90
2022-10-03T16:38:53.584Z,14.80
2022-10-03T16:41:43.961Z,14.70
2022-10-03T16:44:38.467Z,14.60
2022-10-03T16:47:30.520Z,14.60
2022-10-03T16:50:26.265Z,14.50
2022-10-03T16:53:14.863Z,14.50
2022-10-03T16:56:06.792Z,14.40
2022-10-03T16:58:58.729Z,14.40
2022-10-03T17:01:50.535Z,14.30
2022-10-03T17:04:39.871Z,14.30
2022-10-03T17:07:30.433Z,14.20
2022-10-03T17:10:30.061Z,14.20
2022-10-03T17:13:21.480Z,14.10
2022-10-03T17:16:14.317Z,14.10
2022-10-03T17:19:08.802Z,14.10
2022-10-03T17:21:58.235Z,14.00
2022-10-03T17:24:48.363Z,14.00
2022-10-03T17:27:38.147Z,14.00
2022-10-03T17:30:30.931Z,13.90
2022-10-03T17:33:24.026Z,13.80
2022-10-03T17:36:22.248Z,13.80
2022-10-03T17:39:15.124Z,13.70
2022-10-03T17:42:06.069Z,13.80
2022-10-03T17:44:57.511Z,13.70
2022-10-03T17:47:52.046Z,13.70
2022-10-03T17:50:49.952Z,13.70
2022-10-03T17:53:38.597Z,13.70
2022-10-03T17:56:30.035Z,13.60
2022-10-03T17:59:21.201Z,13.50
2022-10-03T18:02:16.268Z,13.50
2022-10-03T18:05:08.826Z,13.50
2022-10-03T18:08:02.628Z,13.30
2022-10-03T18:10:52.377Z,13.30
2022-10-03T18:13:42.523Z,13.40
2022-10-03T18:16:34.590Z,13.20
2022-10-03T18:19:29.544Z,13.20
2022-10-03T18:22:19.059Z,13.20
2022-10-03T18:25:32.423Z,13.10
2022-10-03T18:28:22.884Z,13.10
2022-10-03T18:31:12.814Z,13.10
2022-10-03T18:34:01.629Z,13.10
2022-10-03T18:36:52.763Z,13.10
2022-10-03T18:39:41.034Z,13.10
2022-10-03T18:42:31.211Z,13.10
2022-10-03T18:45:20.612Z,13.00
2022-10-03T18:48:12.860Z,13.00
2022-10-03T18:51:05.320Z,13.00
2022-10-03T18:53:57.448Z,12.90
2022-10-03T18:56:46.761Z,12.80
2022-10-03T18:59:39.572Z,12.80
2022-10-03T19:02:31.847Z,12.80
2022-10-03T19:05:21.545Z,12.90
2022-10-03T19:08:11.395Z,12.80
2022-10-03T19:11:02.733Z,12.80
2022-10-03T19:13:57.277Z,12.70
2022-10-03T19:17:06.408Z,12.60
2022-10-03T19:19:58.857Z,12.60
2022-10-03T19:22:49.984Z,12.50
2022-10-03T19:25:41.425Z,12.50
2022-10-03T19:28:30.440Z,12.50
2022-10-03T19:31:21.475Z,12.50
2022-10-03T19:34:16.064Z,12.50
2022-10-03T19:37:04.082Z,12.50
2022-10-03T19:39:52.255Z,12.50
2022-10-03T19:42:44.393Z,12.50
2022-10-03T19:45:32.351Z,12.40
2022-10-03T19:48:22.726Z,12.40
2022-10-03T19:51:21.604Z,12.40
2022-10-03T19:54:14.089Z,12.20
2022-10-03T19:57:03.091Z,12.10
2022-10-03T19:59:52.623Z,12.10
2022-10-03T20:02:40.425Z,12.00
2022-10-03T20:05:32.698Z,12.00
2022-10-03T20:08:24.317Z,11.90
2022-10-03T20:11:26.462Z,12.00
2022-10-03T20:14:16.139Z,12.00
2022-10-03T20:17:05.347Z,12.00
2022-10-03T20:19:55.769Z,12.00
2022-10-03T20:22:43.743Z,12.00
2022-10-03T20:25:34.527Z,11.90
2022-10-03T20:28:24.762Z,11.80
2022-10-03T20:31:12.867Z,11.80
2022-10-03T20:34:02.586Z,11.80
2022-10-03T20:36:52.667Z,11.80
2022-10-03T20:39:44.346Z,11.80
2022-10-03T20:42:34.249Z,11.70
2022-10-03T20:45:24.326Z,11.70
2022-10-03T20:48:13.956Z,11.70
2022-10-03T20:51:01.836Z,11.70
2022-10-03T20:53:53.074Z,11.70
2022-10-03T20:56:45.948Z,11.60
2022-10-03T20:59:42.897Z,11.60
2022-10-03T21:02:32.198Z,11.40
2022-10-03T21:05:23.016Z,11.30
2022-10-03T21:08:17.792Z,11.30
2022-10-03T21:11:15.064Z,11.20
2022-10-03T21:14:07.203Z,11.30
2022-10-03T21:16:57.076Z,11.20
2022-10-03T21:19:47.030Z,11.20
2022-10-03T21:22:35.900Z,11.10
2022-10-03T21:25:27.463Z,11.00
2022-10-03T21:28:23.546Z,10.90
2022-10-03T21:31:25.006Z,10.80
2022-10-03T21:34:18.756Z,10.70
2022-10-03T21:37:11.126Z,10.70
2022-10-03T21:40:04.749Z,10.70
2022-10-03T21:42:58.774Z,10.60
2022-10-03T21:45:50.605Z,10.50
2022-10-03T21:48:42.508Z,10.50
2022-10-03T21:51:34.386Z,10.40
2022-10-03T21:54:30.545Z,10.30
2022-10-03T21:57:23.109Z,10.30
2022-10-03T22:00:13.496Z,10.30
2022-10-03T22:03:06.383Z,10.20
2022-10-03T22:05:56.898Z,10.20
2022-10-03T22:08:48.011Z,10.10
2022-10-03T22:11:40.382Z,10.20
2022-10-03T22:14:32.477Z,10.20
2022-10-03T22:17:24.460Z,10.10
2022-10-03T22:20:16.838Z,10.10
2022-10-03T22:23:13.413Z,10.10
2022-10-03T22:26:09.603Z,10.10
2022-10-03T22:28:59.763Z,10.10
2022-10-03T22:31:51.228Z,10.00
2022-10-03T22:34:43.683Z,10.00
2022-10-03T22:37:31.570Z,10.00
2022-10-03T22:40:19.396Z,9.90
2022-10-03T22:43:08.881Z,9.90
2022-10-03T22:45:57.254Z,9.80
2022-10-03T22:48:47.371Z,9.90
2022-10-03T22:51:36.367Z,9.90
2022-10-03T22:54:24.626Z,9.80
2022-10-03T22:57:13.856Z,9.70
2022-10-03T23:00:05.979Z,9.70
2022-10-03T23:02:58.508Z,9.60
2022-10-03T23:05:58.338Z,9.70
2022-10-03T23:08:51.592Z,9.90
2022-10-03T23:11:40.027Z,10.10
2022-10-03T23:14:37.693Z,10.00
2022-10-03T23:17:40.783Z,10.00
2022-10-03T23:20:36.067Z,9.80
2022-10-03T23:23:25.871Z,9.70
2022-10-03T23:26:30.446Z,9.70
2022-10-03T23:29:18.893Z,9.60
2022-10-03T23:32:07.468Z,9.60
2022-10-03T23:35:17.240Z,9.50
2022-10-03T23:38:25.590Z,9.40
2022-10-03T23:41:15.125Z,9.40
2022-10-03T23:44:02.818Z,9.30
2022-10-03T23:46:50.672Z,9.30
2022-10-03T23:49:39.399Z,9.30
2022-10-03T23:52:43.479Z,9.30
2022-10-03T23:55:32.740Z,9.30
2022-10-03T23:58:24.460Z,9.20
